Sunrise, Wyoming
Current Conditions -  °F | °C
As of 5:15 PM on Saturday 25 Oct 2014 (Local Time) from KGUR Reporting Station
Clear Clear  
Wind Chill: 81°   Ceiling: Unl
Heat Index: 81°   Visibility: 10mi
Dew Point: 35°   Wind: 10mph
Humidity: 19%   Direction: 110°ESE
Pressure: 29.97"   Gusts: NA
Location:  42.3847°N, 104.796°W
Report Text: KGUR 252315Z AUTO 11009KT 10SM CLR 27/02 A2997 RMK AO2 T02720016
Loading
Personal Weather Stations






























Interactive Weather Map
Tropical Storm Tracking
New forecast layout! Learn more

10-Day Weather Forecast

Advertisements
Track Severe Weather on mobile